Time;durP1;ratioP1;P1;durP2;ratioP2;P2;SDS_P1;SDS_P2;PMS_P1;PMS_P2;Temp;Humidity;BMP_temperature;BMP_pressure;BME280_temperature;BME280_humidity;BME280_pressure;Samples;Min_cycle;Max_cycle;Signal;HPM_P1;HPM_P2
2022/02/14 00:02:15;;;;;;;7.00;6.30;;;7.60;99.90;;;;;;5016120;28;20705;-73
2022/02/14 00:05:13;;;;;;;7.47;6.23;;;7.60;99.90;;;;;;5014453;28;20494;-73
2022/02/14 00:07:52;;;;;;;8.80;5.83;;;7.60;99.90;;;;;;5015489;28;20816;-73
2022/02/14 00:10:51;;;;;;;9.40;6.33;;;7.50;99.90;;;;;;5013165;28;20927;-72
2022/02/14 00:13:46;;;;;;;6.80;6.10;;;7.50;99.90;;;;;;5015291;28;20500;-72
2022/02/14 00:17:00;;;;;;;;;;;;;;;;;;;;;
2022/02/14 00:22:38;;;;;;;6.60;6.00;;;7.50;99.90;;;;;;5009334;28;20463;-73
2022/02/14 00:25:23;;;;;;;7.20;6.10;;;7.40;99.90;;;;;;5013899;28;20525;-72
2022/02/14 00:28:08;;;;;;;8.20;5.97;;;7.40;99.90;;;;;;5013755;28;20502;-72
2022/02/14 00:31:15;;;;;;;9.00;6.30;;;7.40;99.90;;;;;;5010886;28;20479;-71
2022/02/14 00:34:10;;;;;;;7.10;6.40;;;7.40;99.90;;;;;;5010301;28;20894;-72
2022/02/14 00:36:48;;;;;;;6.30;5.70;;;7.40;99.90;;;;;;5012518;28;20448;-72
2022/02/14 00:39:35;;;;;;;6.50;5.90;;;7.30;99.90;;;;;;5012794;28;20554;-71
2022/02/14 00:42:14;;;;;;;7.23;5.93;;;7.30;99.90;;;;;;5014555;28;20462;-71
2022/02/14 00:45:09;;;;;;;7.60;6.40;;;7.30;99.90;;;;;;5013737;28;20855;-73
2022/02/14 00:48:05;;;;;;;7.13;6.27;;;7.30;99.90;;;;;;5014482;28;20475;-71
2022/02/14 00:51:07;;;;;;;7.47;6.13;;;7.30;99.90;;;;;;5015672;28;20498;-72
2022/02/14 00:53:56;;;;;;;6.30;5.70;;;7.20;99.90;;;;;;5015858;28;20610;-71
2022/02/14 00:56:54;;;;;;;7.10;5.67;;;7.30;99.90;;;;;;5015696;28;20466;-71
2022/02/14 00:59:41;;;;;;;6.43;5.83;;;7.30;99.90;;;;;;5011820;28;20469;-71
2022/02/14 01:05:27;;;;;;;6.80;5.67;;;7.30;99.90;;;;;;5014225;28;20569;-73
2022/02/14 01:08:10;;;;;;;6.10;5.50;;;7.30;99.90;;;;;;5015923;28;20470;-73
2022/02/14 01:11:08;;;;;;;9.10;6.73;;;7.30;99.90;;;;;;5014775;28;20487;-72
2022/02/14 01:14:00;;;;;;;6.70;6.10;;;7.30;99.90;;;;;;5027776;28;20515;-72
2022/02/14 01:16:58;;;;;;;;;;;;;;;;;;;;;
2022/02/14 01:20:10;;;;;;;6.60;6.00;;;7.40;99.90;;;;;;5014753;28;20533;-72
2022/02/14 01:22:48;;;;;;;6.70;6.10;;;7.30;99.90;;;;;;5013188;28;20468;-73
2022/02/14 01:25:54;;;;;;;7.23;6.10;;;7.30;99.90;;;;;;5014859;28;20490;-72
2022/02/14 01:28:51;;;;;;;9.80;5.83;;;7.30;99.90;;;;;;5014091;28;20888;-72
2022/02/14 01:31:42;;;;;;;7.23;5.40;;;7.30;99.90;;;;;;5009263;28;20510;-73
2022/02/14 01:34:28;;;;;;;6.13;5.50;;;7.30;99.90;;;;;;5010666;28;20641;-73
2022/02/14 01:37:05;;;;;;;8.83;5.53;;;7.30;99.90;;;;;;5012568;28;20501;-73
2022/02/14 01:39:45;;;;;;;6.53;5.60;;;7.40;99.90;;;;;;5017145;28;20537;-72
2022/02/14 01:42:33;;;;;;;9.73;6.60;;;7.40;99.90;;;;;;5021000;28;21027;-73
2022/02/14 01:45:20;;;;;;;6.63;5.90;;;7.40;99.90;;;;;;5019514;28;20969;-73
2022/02/14 01:48:31;;;;;;;7.40;6.37;;;7.30;99.90;;;;;;5015672;28;20937;-72
2022/02/14 01:54:08;;;;;;;7.43;6.10;;;7.30;99.90;;;;;;5010783;28;21008;-72
2022/02/14 01:59:58;;;;;;;5.87;5.30;;;7.30;99.90;;;;;;5019322;28;20475;-72
2022/02/14 02:02:51;;;;;;;6.20;5.10;;;7.40;99.90;;;;;;5016700;28;20796;-72
2022/02/14 02:05:49;;;;;;;5.87;5.27;;;7.40;99.90;;;;;;5017104;28;20502;-72
2022/02/14 02:08:43;;;;;;;;;;;;;;;;;;;;;
2022/02/14 02:14:37;;;;;;;5.53;5.03;;;7.40;99.90;;;;;;5018064;28;21569;-72
2022/02/14 02:18:01;;;;;;;12.30;7.00;;;7.40;99.90;;;;;;4957659;28;21268;-72
2022/02/14 02:20:32;;;;;;;6.23;5.27;;;7.40;99.90;;;;;;4953633;28;20585;-72
2022/02/14 02:23:16;;;;;;;6.43;5.40;;;7.40;99.90;;;;;;4958705;28;20633;-72
2022/02/14 02:26:04;;;;;;;6.80;5.57;;;7.40;99.90;;;;;;4959569;28;20534;-72
2022/02/14 02:28:46;;;;;;;5.63;4.70;;;7.50;99.90;;;;;;4958024;28;21011;-71
2022/02/14 02:31:43;;;;;;;;;;;;;;;;;;;;;
2022/02/14 02:34:21;;;;;;;6.30;4.83;;;7.50;99.90;;;;;;4945902;28;20505;-71
2022/02/14 02:37:07;;;;;;;5.97;5.23;;;7.50;99.90;;;;;;4956226;28;20471;-72
2022/02/14 02:39:59;;;;;;;6.13;4.47;;;7.40;99.90;;;;;;4958080;28;21480;-71
2022/02/14 02:42:49;;;;;;;7.00;5.17;;;7.50;99.90;;;;;;5021714;28;20904;-72
2022/02/14 02:45:51;;;;;;;5.20;4.70;;;7.40;99.90;;;;;;5018518;28;20607;-71
2022/02/14 02:51:33;;;;;;;6.30;4.70;;;7.40;99.90;;;;;;5017269;28;20480;-72
2022/02/14 02:54:09;;;;;;;4.87;4.33;;;7.50;99.90;;;;;;5016782;28;20516;-71
2022/02/14 02:56:48;;;;;;;5.23;4.73;;;7.50;99.90;;;;;;5019465;28;20466;-72
2022/02/14 02:59:33;;;;;;;;;;;;;;;;;;;;;
2022/02/14 03:02:11;;;;;;;5.93;5.03;;;7.40;99.90;;;;;;5010556;28;20595;-72
2022/02/14 03:07:53;;;;;;;5.67;4.77;;;7.40;99.90;;;;;;5013519;28;20992;-72
2022/02/14 03:10:37;;;;;;;8.43;5.47;;;7.50;99.90;;;;;;5020500;28;20487;-72
2022/02/14 03:13:20;;;;;;;7.17;4.77;;;7.50;99.90;;;;;;5017289;28;20476;-72
2022/02/14 03:16:30;;;;;;;5.10;4.50;;;7.50;99.90;;;;;;5006188;28;20475;-72
2022/02/14 03:19:07;;;;;;;6.17;4.50;;;7.50;99.90;;;;;;5017820;28;20853;-72
2022/02/14 03:24:48;;;;;;;6.30;4.83;;;7.60;99.90;;;;;;5019680;28;20484;-72
2022/02/14 03:27:20;;;;;;;4.83;4.23;;;7.50;99.90;;;;;;5008795;28;20472;-72
2022/02/14 03:29:56;;;;;;;6.40;4.60;;;7.50;99.90;;;;;;5016870;28;20517;-71
2022/02/14 03:32:56;;;;;;;6.97;4.83;;;7.50;99.90;;;;;;5017869;28;20489;-72
2022/02/14 03:35:42;;;;;;;6.70;4.40;;;7.50;99.90;;;;;;5013276;28;20842;-71
2022/02/14 03:38:42;;;;;;;5.60;4.93;;;7.50;99.90;;;;;;5016162;28;20459;-72
2022/02/14 03:41:39;;;;;;;6.40;4.87;;;7.50;99.90;;;;;;5020043;28;20514;-71
2022/02/14 03:44:42;;;;;;;5.43;4.50;;;7.50;99.90;;;;;;5015705;28;20493;-72
2022/02/14 03:47:39;;;;;;;5.20;4.70;;;7.60;99.90;;;;;;5016665;28;20966;-71
2022/02/14 03:50:19;;;;;;;6.50;4.90;;;7.60;99.90;;;;;;5011533;28;20587;-72
2022/02/14 03:53:23;;;;;;;5.90;4.57;;;7.60;99.90;;;;;;5017264;28;20473;-72
2022/02/14 03:56:03;;;;;;;5.67;4.10;;;7.60;99.90;;;;;;5014935;28;20479;-73
2022/02/14 03:58:55;;;;;;;4.80;4.40;;;7.60;99.90;;;;;;5016591;28;20467;-71
2022/02/14 04:01:42;;;;;;;6.03;4.73;;;7.60;99.90;;;;;;5015412;28;20514;-72
2022/02/14 04:04:33;;;;;;;6.23;4.40;;;7.60;99.90;;;;;;5016465;28;20476;-72
2022/02/14 04:07:18;;;;;;;7.90;4.87;;;7.60;99.90;;;;;;5018152;28;20518;-72
2022/02/14 04:10:02;;;;;;;6.10;5.00;;;7.60;99.90;;;;;;5015325;28;20594;-71
2022/02/14 04:12:44;;;;;;;7.20;5.20;;;7.60;99.90;;;;;;5014253;28;21039;-72
2022/02/14 04:15:28;;;;;;;5.50;4.60;;;7.60;99.90;;;;;;5017040;28;20556;-71
2022/02/14 04:17:58;;;;;;;7.57;4.47;;;7.60;99.90;;;;;;5014339;28;20459;-72
2022/02/14 04:21:04;;;;;;;4.83;4.43;;;7.60;99.90;;;;;;5015503;28;20531;-72
2022/02/14 04:27:19;;;;;;;8.10;4.77;;;7.60;99.90;;;;;;5014377;28;20482;-72
2022/02/14 04:30:15;;;;;;;5.33;4.10;;;7.60;99.90;;;;;;5014004;28;20542;-72
2022/02/14 04:33:10;;;;;;;4.97;4.50;;;7.60;99.90;;;;;;5012682;28;20467;-71
2022/02/14 04:35:58;;;;;;;;;;;;;;;;;;;;;
2022/02/14 04:38:48;;;;;;;7.60;4.97;;;7.60;99.90;;;;;;5015232;28;20461;-70
2022/02/14 04:41:30;;;;;;;4.73;4.17;;;7.60;99.90;;;;;;5011393;28;20487;-70
2022/02/14 04:44:15;;;;;;;7.13;4.30;;;7.60;99.90;;;;;;5015788;28;20498;-70
2022/02/14 04:46:57;;;;;;;5.77;5.20;;;7.60;99.90;;;;;;5012496;28;20467;-71
2022/02/14 04:49:31;;;;;;;5.77;4.57;;;7.50;99.90;;;;;;5013114;28;20468;-70
2022/02/14 04:52:30;;;;;;;4.53;3.90;;;7.50;99.90;;;;;;5013069;28;20558;-73
2022/02/14 04:55:38;;;;;;;5.20;4.40;;;7.50;99.90;;;;;;5014790;28;20497;-70
2022/02/14 04:58:16;;;;;;;4.93;4.30;;;7.50;99.90;;;;;;5016076;28;21070;-70
2022/02/14 05:00:56;;;;;;;7.30;5.20;;;7.50;99.90;;;;;;5015040;28;20480;-71
2022/02/14 05:03:37;;;;;;;4.50;4.10;;;7.50;99.90;;;;;;5016222;28;21129;-71
2022/02/14 05:06:29;;;;;;;4.67;4.27;;;7.50;99.90;;;;;;5015016;28;20515;-71
2022/02/14 05:09:09;;;;;;;5.27;4.70;;;7.50;99.90;;;;;;5012126;28;20466;-71
2022/02/14 05:11:44;;;;;;;6.77;4.80;;;7.50;99.90;;;;;;5016889;28;20506;-72
2022/02/14 05:17:33;;;;;;;5.87;4.07;;;7.50;99.90;;;;;;5019220;28;20983;-71
2022/02/14 05:20:38;;;;;;;6.83;4.30;;;7.50;99.90;;;;;;5015931;28;20479;-71
2022/02/14 05:23:23;;;;;;;5.17;4.67;;;7.50;99.90;;;;;;5022387;28;20990;-72
2022/02/14 05:25:59;;;;;;;8.07;5.17;;;7.50;99.90;;;;;;5021280;28;20561;-71
2022/02/14 05:28:46;;;;;;;5.53;4.10;;;7.50;99.90;;;;;;5020320;28;20509;-72
2022/02/14 05:31:41;;;;;;;8.40;5.30;;;7.50;99.90;;;;;;5022534;28;20477;-72
2022/02/14 05:34:26;;;;;;;4.63;4.23;;;7.50;99.90;;;;;;5017155;28;20501;-72
2022/02/14 05:37:19;;;;;;;5.53;4.23;;;7.50;99.90;;;;;;5016039;28;20464;-71
2022/02/14 05:43:02;;;;;;;4.33;3.93;;;7.60;99.90;;;;;;5014284;28;20877;-71
2022/02/14 05:45:35;;;;;;;7.43;4.60;;;7.60;99.90;;;;;;5017932;28;20470;-72
2022/02/14 05:48:37;;;;;;;5.27;4.60;;;7.60;99.90;;;;;;5031325;28;20882;-71
2022/02/14 05:51:25;;;;;;;5.07;4.27;;;7.60;99.90;;;;;;5015854;28;20488;-72
2022/02/14 05:54:04;;;;;;;5.87;4.77;;;7.60;99.90;;;;;;5012666;28;20545;-71
2022/02/14 05:56:50;;;;;;;5.63;4.60;;;7.70;99.90;;;;;;5016410;28;20471;-71
2022/02/14 05:59:32;;;;;;;7.47;4.57;;;7.70;99.90;;;;;;5014154;28;20468;-71
2022/02/14 06:02:22;;;;;;;5.80;4.43;;;7.80;99.90;;;;;;5013840;28;20463;-72
2022/02/14 06:05:01;;;;;;;5.63;4.70;;;7.80;99.90;;;;;;5014944;28;20897;-71
2022/02/14 06:07:58;;;;;;;5.80;4.83;;;7.80;99.90;;;;;;5019641;28;20474;-71
2022/02/14 06:10:30;;;;;;;6.60;4.30;;;7.80;99.90;;;;;;5010619;28;22103;-71
2022/02/14 06:13:22;;;;;;;6.00;4.83;;;7.80;99.90;;;;;;5019946;28;20474;-72
2022/02/14 06:19:02;;;;;;;4.60;4.20;;;7.70;99.90;;;;;;5012191;28;20486;-71
2022/02/14 06:21:42;;;;;;;5.17;4.20;;;7.80;99.90;;;;;;5019889;28;21078;-72
2022/02/14 06:24:14;;;;;;;6.73;4.80;;;7.70;99.90;;;;;;5013425;28;20553;-72
2022/02/14 06:26:44;;;;;;;8.87;4.57;;;7.80;99.90;;;;;;5014494;28;20460;-72
2022/02/14 06:29:12;;;;;;;6.23;4.90;;;7.80;99.90;;;;;;5014785;28;20464;-72
2022/02/14 06:31:42;;;;;;;6.23;4.33;;;7.80;99.90;;;;;;5011138;28;20508;-72
2022/02/14 06:34:13;;;;;;;6.13;4.67;;;7.80;99.90;;;;;;5013832;28;20586;-72
2022/02/14 06:36:42;;;;;;;7.00;4.77;;;7.80;99.90;;;;;;5012495;28;20502;-71
2022/02/14 06:39:13;;;;;;;8.80;4.47;;;7.80;99.90;;;;;;5014512;28;20482;-72
2022/02/14 06:41:45;;;;;;;7.90;4.97;;;7.80;99.90;;;;;;5012952;28;20500;-71
2022/02/14 06:44:18;;;;;;;6.50;4.70;;;7.80;99.90;;;;;;5016354;28;20499;-72
2022/02/14 06:46:49;;;;;;;7.20;4.57;;;7.80;99.90;;;;;;5013806;28;20456;-71
2022/02/14 06:49:20;;;;;;;6.80;4.50;;;7.90;99.90;;;;;;5015408;28;20521;-71
2022/02/14 06:51:53;;;;;;;7.77;4.87;;;7.90;99.90;;;;;;5015194;28;20479;-71
2022/02/14 06:54:21;;;;;;;7.77;4.33;;;7.90;99.90;;;;;;5016041;28;20484;-72
2022/02/14 06:56:53;;;;;;;5.10;4.30;;;7.90;99.90;;;;;;5018002;28;20479;-72
2022/02/14 06:59:22;;;;;;;4.70;4.13;;;7.90;99.90;;;;;;5018501;28;21049;-72
2022/02/14 07:01:59;;;;;;;6.90;6.20;;;7.90;99.90;;;;;;5015625;28;20467;-71
2022/02/14 07:04:27;;;;;;;8.40;5.63;;;8.00;99.90;;;;;;5003119;28;20623;-72
2022/02/14 07:06:57;;;;;;;4.87;4.30;;;7.90;99.90;;;;;;5020037;28;20455;-72
2022/02/14 07:09:25;;;;;;;5.90;4.57;;;8.00;99.90;;;;;;5015926;28;20525;-72
2022/02/14 07:11:54;;;;;;;6.30;4.50;;;8.00;99.90;;;;;;5016207;28;20481;-72
2022/02/14 07:14:24;;;;;;;5.30;4.70;;;8.00;99.90;;;;;;5019790;28;20829;-72
2022/02/14 07:16:52;;;;;;;6.43;4.57;;;8.00;99.90;;;;;;5014357;28;20550;-71
2022/02/14 07:19:20;;;;;;;6.80;4.33;;;8.00;99.90;;;;;;5018698;28;20459;-72
2022/02/14 07:21:48;;;;;;;5.20;3.97;;;8.00;99.90;;;;;;5030249;28;20840;-72
2022/02/14 07:24:16;;;;;;;4.80;4.30;;;8.10;99.90;;;;;;5017315;28;20483;-72
2022/02/14 07:26:43;;;;;;;4.30;3.83;;;8.10;99.90;;;;;;5017495;28;20865;-72
2022/02/14 07:29:13;;;;;;;6.00;3.80;;;8.20;99.90;;;;;;5015577;28;20467;-71
2022/02/14 07:31:41;;;;;;;4.87;3.83;;;8.20;99.90;;;;;;5014113;28;20508;-71
2022/02/14 07:34:09;;;;;;;5.50;4.30;;;8.30;99.90;;;;;;5011176;28;20493;-72
2022/02/14 07:36:37;;;;;;;6.03;4.10;;;8.40;99.90;;;;;;5015507;28;20859;-71
2022/02/14 07:39:05;;;;;;;6.13;4.50;;;8.50;99.90;;;;;;5017723;28;20482;-72
2022/02/14 07:41:36;;;;;;;5.60;4.10;;;8.50;99.90;;;;;;5016114;28;20545;-72
2022/02/14 07:44:05;;;;;;;4.33;3.70;;;8.60;99.90;;;;;;5016051;28;20495;-72
2022/02/14 07:46:34;;;;;;;4.77;4.00;;;8.60;99.90;;;;;;5016366;28;21182;-72
2022/02/14 07:49:02;;;;;;;8.93;4.40;;;8.70;99.90;;;;;;5015754;28;20465;-71
2022/02/14 07:51:30;;;;;;;6.10;4.00;;;8.70;99.90;;;;;;5016717;28;20549;-71
2022/02/14 07:53:58;;;;;;;4.87;3.73;;;8.80;99.90;;;;;;5015899;28;20574;-71
2022/02/14 07:56:26;;;;;;;5.47;3.83;;;8.80;99.90;;;;;;5016528;28;20464;-71
2022/02/14 07:58:55;;;;;;;4.63;3.70;;;9.00;99.90;;;;;;5015985;28;20464;-71
2022/02/14 08:01:23;;;;;;;4.97;3.60;;;9.00;99.90;;;;;;5016979;28;20483;-71
2022/02/14 08:03:52;;;;;;;5.73;3.57;;;9.00;99.90;;;;;;5017154;28;20534;-71
2022/02/14 08:06:37;;;;;;;4.90;3.80;;;9.10;99.90;;;;;;5018224;28;20467;-71
2022/02/14 08:09:05;;;;;;;4.03;3.73;;;9.10;99.90;;;;;;5020583;28;20550;-71
2022/02/14 08:11:33;;;;;;;4.10;3.50;;;9.20;99.90;;;;;;5016027;28;21103;-72
2022/02/14 08:14:01;;;;;;;4.00;3.60;;;9.30;99.90;;;;;;5019054;28;21176;-71
2022/02/14 08:16:32;;;;;;;9.47;3.80;;;9.30;99.90;;;;;;5018946;28;20898;-72
2022/02/14 08:19:01;;;;;;;4.80;3.40;;;9.30;99.90;;;;;;5018004;28;20463;-71
2022/02/14 08:21:31;;;;;;;5.13;3.40;;;9.40;99.90;;;;;;5020208;28;21025;-71
2022/02/14 08:24:00;;;;;;;3.53;3.20;;;9.40;99.90;;;;;;5016072;28;21237;-71
2022/02/14 08:26:28;;;;;;;4.00;3.60;;;9.50;99.90;;;;;;5015834;28;20455;-71
2022/02/14 08:28:56;;;;;;;6.00;3.43;;;9.50;99.90;;;;;;5015697;28;20482;-71
2022/02/14 08:31:24;;;;;;;7.60;3.77;;;9.60;99.90;;;;;;5015131;28;20492;-71
2022/02/14 08:33:51;;;;;;;3.87;3.23;;;9.60;99.90;;;;;;5017051;28;20492;-71
2022/02/14 08:36:21;;;;;;;4.40;3.30;;;9.60;99.90;;;;;;5017304;28;20459;-71
2022/02/14 08:38:49;;;;;;;4.70;3.60;;;9.60;99.90;;;;;;5017360;28;20556;-71
2022/02/14 08:41:20;;;;;;;3.80;3.47;;;9.60;99.90;;;;;;5015169;28;21253;-71
2022/02/14 08:43:49;;;;;;;6.47;3.40;;;9.60;99.90;;;;;;5012752;28;21060;-71
2022/02/14 08:46:20;;;;;;;4.67;3.80;;;9.70;99.90;;;;;;5016304;28;20491;-72
2022/02/14 08:48:48;;;;;;;6.67;3.80;;;9.70;99.90;;;;;;5015431;28;21014;-71
2022/02/14 08:51:18;;;;;;;6.13;3.60;;;9.70;99.90;;;;;;5016572;28;20519;-72
2022/02/14 08:53:48;;;;;;;4.40;3.10;;;9.80;99.90;;;;;;5013651;28;20570;-72
2022/02/14 08:56:16;;;;;;;3.70;3.17;;;9.80;99.90;;;;;;5014930;28;20472;-73
2022/02/14 08:58:45;;;;;;;6.17;3.70;;;9.80;99.90;;;;;;5013916;28;20886;-74
2022/02/14 09:01:15;;;;;;;4.50;3.30;;;9.80;99.90;;;;;;5013527;28;20479;-72
2022/02/14 09:03:43;;;;;;;4.77;3.50;;;9.80;99.90;;;;;;5015538;28;20477;-72
2022/02/14 09:06:13;;;;;;;5.00;3.33;;;9.80;99.90;;;;;;5017149;28;20521;-72
2022/02/14 09:08:41;;;;;;;5.20;3.50;;;9.90;99.90;;;;;;5014205;28;20587;-72
2022/02/14 09:11:10;;;;;;;4.90;3.23;;;9.90;99.90;;;;;;5015164;28;20547;-72
2022/02/14 09:13:38;;;;;;;5.47;3.60;;;9.90;99.90;;;;;;5013987;28;20487;-72
2022/02/14 09:16:07;;;;;;;5.20;3.63;;;9.90;99.90;;;;;;5010293;28;20464;-72
2022/02/14 09:18:36;;;;;;;4.03;3.40;;;10.00;99.90;;;;;;5015512;28;20911;-72
2022/02/14 09:21:07;;;;;;;6.33;3.40;;;10.00;99.90;;;;;;5015078;28;20533;-72
2022/02/14 09:23:36;;;;;;;5.73;3.30;;;10.10;99.90;;;;;;5015516;28;20496;-72
2022/02/14 09:26:04;;;;;;;3.63;3.00;;;10.20;99.90;;;;;;5014557;28;20483;-72
2022/02/14 09:28:34;;;;;;;4.03;3.40;;;10.30;99.90;;;;;;5011027;28;20491;-72
2022/02/14 09:31:03;;;;;;;4.03;3.50;;;10.40;99.90;;;;;;5012709;28;21086;-72
2022/02/14 09:33:31;;;;;;;5.53;2.80;;;10.50;99.90;;;;;;5013760;28;20480;-72
2022/02/14 09:35:59;;;;;;;4.97;3.80;;;10.60;99.90;;;;;;5009896;28;20849;-72
2022/02/14 09:38:27;;;;;;;6.30;3.70;;;10.60;99.90;;;;;;5015701;28;20475;-72
2022/02/14 09:40:55;;;;;;;2.97;2.77;;;10.60;99.90;;;;;;5009680;28;20492;-72
2022/02/14 09:43:25;;;;;;;4.97;3.60;;;10.60;99.90;;;;;;5013876;28;20482;-72
2022/02/14 09:46:01;;;;;;;5.60;3.17;;;10.70;99.90;;;;;;5010090;28;20501;-73
2022/02/14 09:48:34;;;;;;;4.30;3.20;;;10.70;99.90;;;;;;5015285;28;20466;-73
2022/02/14 09:51:02;;;;;;;4.20;3.30;;;10.80;99.90;;;;;;5013954;28;20484;-73
2022/02/14 09:53:31;;;;;;;3.80;3.40;;;10.90;99.90;;;;;;5014547;28;20540;-73
2022/02/14 09:55:59;;;;;;;3.47;2.80;;;10.90;99.90;;;;;;5017714;28;20471;-73
2022/02/14 09:58:27;;;;;;;5.13;3.83;;;11.00;99.90;;;;;;5014451;28;21059;-73
2022/02/14 10:00:55;;;;;;;8.67;3.67;;;11.10;99.90;;;;;;5018172;28;20926;-73
2022/02/14 10:03:25;;;;;;;3.70;3.10;;;11.10;99.90;;;;;;5018378;28;21022;-73
2022/02/14 10:05:55;;;;;;;3.93;2.97;;;11.10;99.90;;;;;;5025184;28;20943;-73
2022/02/14 10:08:25;;;;;;;3.67;3.27;;;11.20;99.90;;;;;;5022108;28;20455;-73
2022/02/14 10:10:56;;;;;;;3.43;3.10;;;11.30;99.90;;;;;;5031199;28;20480;-73
2022/02/14 10:13:34;;;;;;;3.07;2.80;;;11.30;99.90;;;;;;5017599;28;20869;-73
2022/02/14 10:16:08;;;;;;;3.70;3.40;;;11.30;99.90;;;;;;5020191;28;20463;-73
2022/02/14 10:18:38;;;;;;;7.13;3.30;;;11.40;99.90;;;;;;5014926;28;20503;-73
2022/02/14 10:21:23;;;;;;;3.80;3.37;;;11.40;99.90;;;;;;5017758;28;20482;-73
2022/02/14 10:23:58;;;;;;;4.10;3.20;;;11.50;99.90;;;;;;5017338;28;20485;-73
2022/02/14 10:26:28;;;;;;;5.90;3.13;;;11.40;99.90;;;;;;5019512;28;20934;-73
2022/02/14 10:28:57;;;;;;;4.60;3.30;;;11.40;99.90;;;;;;5015855;28;20468;-73
2022/02/14 10:31:25;;;;;;;5.40;3.30;;;11.50;99.90;;;;;;5014129;28;20492;-73
2022/02/14 10:33:56;;;;;;;4.27;2.77;;;11.50;99.90;;;;;;5019863;28;20554;-73
2022/02/14 10:36:27;;;;;;;3.40;3.03;;;11.60;99.90;;;;;;5017761;28;20484;-73
2022/02/14 10:38:56;;;;;;;3.23;2.93;;;11.60;99.90;;;;;;5016702;28;20476;-73
2022/02/14 10:41:28;;;;;;;3.20;2.80;;;11.70;99.90;;;;;;5020458;28;20507;-73
2022/02/14 10:44:12;;;;;;;4.80;3.17;;;11.70;99.90;;;;;;5017220;28;20582;-73
2022/02/14 10:46:41;;;;;;;4.80;3.47;;;11.80;99.90;;;;;;5019047;28;20467;-73
2022/02/14 10:49:11;;;;;;;3.70;3.17;;;11.90;99.90;;;;;;5020244;28;20871;-73
2022/02/14 10:52:02;;;;;;;5.47;2.93;;;12.00;99.90;;;;;;5018090;28;20486;-73
2022/02/14 10:54:36;;;;;;;5.77;3.00;;;12.10;99.90;;;;;;5016157;28;20483;-73
2022/02/14 10:57:06;;;;;;;3.90;2.87;;;12.20;99.90;;;;;;5016142;28;21028;-73
2022/02/14 10:59:34;;;;;;;4.57;3.20;;;12.20;99.90;;;;;;5014039;28;20483;-72
2022/02/14 11:02:05;;;;;;;4.20;3.13;;;12.20;99.90;;;;;;5014747;28;20475;-72
2022/02/14 11:04:35;;;;;;;3.03;2.73;;;12.30;99.90;;;;;;5018018;28;20575;-73
2022/02/14 11:07:04;;;;;;;3.77;3.40;;;12.30;99.90;;;;;;5019305;28;20473;-74
2022/02/14 11:09:32;;;;;;;4.13;3.13;;;12.30;99.90;;;;;;5020318;28;20526;-73
2022/02/14 11:12:01;;;;;;;3.70;2.90;;;12.30;99.90;;;;;;5018194;28;20471;-73
2022/02/14 11:14:30;;;;;;;2.90;2.60;;;12.50;99.90;;;;;;5018298;28;20519;-73
2022/02/14 11:17:01;;;;;;;4.57;3.00;;;12.60;99.90;;;;;;5016822;28;20509;-73
2022/02/14 11:19:30;;;;;;;3.97;3.00;;;12.70;99.90;;;;;;5014519;28;21219;-73
2022/02/14 11:22:03;;;;;;;3.10;2.80;;;12.90;99.90;;;;;;5016347;28;21017;-73
2022/02/14 11:24:33;;;;;;;4.27;2.90;;;13.00;99.90;;;;;;5012994;28;20487;-72
2022/02/14 11:27:05;;;;;;;4.63;2.80;;;13.00;99.90;;;;;;5014030;28;20467;-72
2022/02/14 11:29:52;;;;;;;3.60;3.07;;;13.00;99.90;;;;;;5018947;28;20477;-71
2022/02/14 11:32:22;;;;;;;6.53;3.23;;;12.90;99.90;;;;;;5018013;28;20898;-72
2022/02/14 11:34:58;;;;;;;3.97;3.27;;;12.90;99.90;;;;;;5016321;28;20487;-72
2022/02/14 11:37:50;;;;;;;5.20;3.17;;;12.80;99.90;;;;;;5010781;28;20472;-73
2022/02/14 11:40:35;;;;;;;4.87;2.63;;;12.80;99.90;;;;;;5016065;28;20526;-72
2022/02/14 11:43:23;;;;;;;4.13;2.70;;;12.80;99.90;;;;;;5013047;28;20550;-72
2022/02/14 11:46:20;;;;;;;2.97;2.67;;;12.80;99.90;;;;;;5017065;28;20514;-72
2022/02/14 11:48:55;;;;;;;3.87;2.90;;;12.90;99.90;;;;;;5011088;28;21001;-72
2022/02/14 11:51:36;;;;;;;3.67;2.87;;;13.00;99.90;;;;;;5019320;28;21268;-72
2022/02/14 11:54:07;;;;;;;6.10;2.70;;;13.20;99.90;;;;;;5020940;28;20544;-72
2022/02/14 11:56:41;;;;;;;3.33;3.03;;;13.30;99.90;;;;;;5014082;28;21052;-72
2022/02/14 11:59:15;;;;;;;4.07;3.00;;;13.60;99.90;;;;;;5019121;28;20479;-72
2022/02/14 12:02:02;;;;;;;5.20;3.07;;;14.00;99.90;;;;;;5015709;28;20483;-71
2022/02/14 12:04:48;;;;;;;2.47;2.30;;;14.90;99.90;;;;;;5016976;28;20482;-72
2022/02/14 12:07:23;;;;;;;3.33;2.57;;;16.50;99.90;;;;;;5016991;28;20471;-73
2022/02/14 12:10:14;;;;;;;2.40;2.20;;;17.50;99.90;;;;;;5015232;28;20485;-73
2022/02/14 12:13:06;;;;;;;3.50;2.60;;;20.10;99.90;;;;;;5017031;28;20482;-73
2022/02/14 12:21:49;;;;;;;2.73;2.53;;;17.70;99.90;;;;;;5009544;28;20465;-72
2022/02/14 12:24:21;;;;;;;3.03;2.50;;;16.20;99.90;;;;;;5013406;28;20488;-73
2022/02/14 12:27:01;;;;;;;3.13;2.53;;;15.40;99.90;;;;;;5014650;28;20468;-72
2022/02/14 12:29:35;;;;;;;2.60;2.40;;;14.70;99.90;;;;;;5013159;28;20499;-71
2022/02/14 12:32:17;;;;;;;3.50;2.80;;;14.20;99.90;;;;;;5013285;28;21028;-71
2022/02/14 12:34:51;;;;;;;4.03;2.30;;;13.80;99.90;;;;;;5016738;28;20501;-71
2022/02/14 12:37:21;;;;;;;3.20;2.90;;;13.70;99.90;;;;;;5015011;28;20487;-73
2022/02/14 12:39:52;;;;;;;3.13;2.43;;;13.50;99.90;;;;;;5014503;28;20484;-72
2022/02/14 12:42:24;;;;;;;2.83;2.40;;;13.40;99.90;;;;;;5028739;28;20505;-72
2022/02/14 12:44:55;;;;;;;4.00;2.70;;;13.40;99.90;;;;;;5018571;28;20475;-71
2022/02/14 12:47:26;;;;;;;2.53;2.33;;;13.20;99.90;;;;;;5014593;28;20494;-72
2022/02/14 12:50:09;;;;;;;4.33;2.77;;;13.00;99.90;;;;;;5015725;28;21014;-72
2022/02/14 12:52:38;;;;;;;5.17;3.30;;;12.90;99.90;;;;;;5015838;28;20487;-72
2022/02/14 12:55:07;;;;;;;3.70;2.57;;;12.90;99.90;;;;;;5014470;28;20514;-73
2022/02/14 12:57:42;;;;;;;2.63;2.40;;;12.90;99.90;;;;;;5017469;28;20464;-72
2022/02/14 13:00:24;;;;;;;3.03;2.73;;;12.90;99.90;;;;;;5014791;28;21290;-72
2022/02/14 13:02:53;;;;;;;4.47;3.00;;;12.80;99.90;;;;;;5015483;28;20478;-71
2022/02/14 13:05:22;;;;;;;3.43;2.63;;;12.80;99.90;;;;;;5015601;28;21013;-74
2022/02/14 13:07:50;;;;;;;3.40;3.10;;;12.70;99.90;;;;;;5015020;28;20471;-73
2022/02/14 13:10:18;;;;;;;3.03;2.60;;;12.70;99.90;;;;;;5012612;28;20488;-73
2022/02/14 13:13:03;;;;;;;2.70;2.50;;;12.70;99.90;;;;;;5015368;28;20468;-72
2022/02/14 13:15:40;;;;;;;2.87;2.63;;;12.70;99.90;;;;;;5015607;28;20526;-73
2022/02/14 13:18:11;;;;;;;2.30;2.10;;;12.70;99.90;;;;;;5009233;28;20463;-73
2022/02/14 13:20:39;;;;;;;4.33;2.97;;;13.60;99.90;;;;;;5020884;28;20528;-73
2022/02/14 13:23:07;;;;;;;3.43;3.13;;;13.70;99.90;;;;;;5017175;28;20471;-73
2022/02/14 13:25:52;;;;;;;2.83;2.60;;;13.50;99.90;;;;;;5012078;28;20582;-73
2022/02/14 13:28:22;;;;;;;3.77;3.43;;;13.30;99.90;;;;;;5014452;28;20463;-73
2022/02/14 13:30:52;;;;;;;3.00;2.80;;;13.20;99.90;;;;;;5013130;28;20853;-72
2022/02/14 13:33:24;;;;;;;4.00;3.40;;;13.00;99.90;;;;;;5011675;28;21007;-73
2022/02/14 13:35:59;;;;;;;3.23;2.93;;;12.80;99.90;;;;;;5018075;28;20466;-73
2022/02/14 13:38:35;;;;;;;2.93;2.63;;;12.80;99.90;;;;;;5018477;28;20466;-73
2022/02/14 13:41:07;;;;;;;3.17;2.87;;;12.70;99.90;;;;;;5019031;28;20495;-73
2022/02/14 13:43:42;;;;;;;3.00;2.80;;;12.60;99.90;;;;;;5017385;28;20487;-73
2022/02/14 13:46:12;;;;;;;5.13;2.77;;;12.60;99.90;;;;;;5016051;28;20483;-74
2022/02/14 13:48:45;;;;;;;3.70;3.40;;;12.60;99.90;;;;;;5015397;28;20455;-73
2022/02/14 13:51:21;;;;;;;6.10;3.50;;;12.50;99.90;;;;;;5012556;28;20476;-74
2022/02/14 13:53:55;;;;;;;4.90;3.30;;;12.40;99.90;;;;;;5017019;28;20495;-73
2022/02/14 13:56:27;;;;;;;4.77;3.63;;;12.30;99.90;;;;;;5009623;28;20463;-74
2022/02/14 13:58:58;;;;;;;4.10;3.70;;;12.20;99.90;;;;;;5015162;28;20478;-74
2022/02/14 14:01:29;;;;;;;3.80;3.50;;;12.00;99.90;;;;;;5012219;28;20475;-74
2022/02/14 14:03:59;;;;;;;3.97;3.30;;;12.00;99.90;;;;;;5022371;28;20506;-74
2022/02/14 14:06:29;;;;;;;4.20;3.77;;;12.00;99.90;;;;;;5019772;28;20955;-74
2022/02/14 14:08:58;;;;;;;4.10;3.80;;;12.00;99.90;;;;;;5018499;28;20556;-73
2022/02/14 14:11:32;;;;;;;4.70;4.20;;;11.80;99.90;;;;;;5019214;28;20585;-74
2022/02/14 14:14:04;;;;;;;4.40;4.00;;;11.70;99.90;;;;;;5019974;28;20479;-74
2022/02/14 14:16:33;;;;;;;4.33;3.93;;;11.60;99.90;;;;;;5016206;28;20459;-74
2022/02/14 14:19:04;;;;;;;5.23;4.53;;;11.50;99.90;;;;;;5020390;28;20464;-74
2022/02/14 14:21:31;;;;;;;4.47;4.07;;;11.50;99.90;;;;;;5019604;28;20479;-74
2022/02/14 14:23:59;;;;;;;4.70;4.30;;;11.40;99.90;;;;;;5017937;28;20488;-74
2022/02/14 14:26:27;;;;;;;5.10;4.60;;;11.40;99.90;;;;;;5020869;28;20463;-74
2022/02/14 14:28:55;;;;;;;4.87;4.47;;;11.40;99.90;;;;;;5017523;28;20467;-74
2022/02/14 14:31:27;;;;;;;5.30;4.80;;;11.40;99.90;;;;;;5014518;28;20484;-72
2022/02/14 14:33:55;;;;;;;5.33;4.63;;;11.40;99.90;;;;;;5011564;28;20482;-73
2022/02/14 14:36:23;;;;;;;6.10;5.23;;;11.40;99.90;;;;;;5018347;28;20468;-71
2022/02/14 14:38:51;;;;;;;4.77;4.37;;;11.40;99.90;;;;;;5008869;28;20510;-73
2022/02/14 14:41:19;;;;;;;5.00;4.47;;;11.40;99.90;;;;;;5018589;28;20519;-73